Time;durP1;ratioP1;P1;durP2;ratioP2;P2;SDS_P1;SDS_P2;PMS_P1;PMS_P2;Temp;Humidity;BMP_temperature;BMP_pressure;BME280_temperature;BME280_humidity;BME280_pressure;Samples;Min_cycle;Max_cycle;Signal;HPM_P1;HPM_P2
2022/11/09 00:02:12;;;;;;;2.4;2.2;;;;;;;5.14;83.61523;936.4319;;;;
2022/11/09 00:04:57;;;;;;;3.3;2;;;;;;;5.14;83.62695;936.4737;;;;
2022/11/09 00:07:27;;;;;;;28.4;15.8;;;;;;;5.15;83.20313;936.4765;;;;
2022/11/09 00:09:53;;;;;;;4.8;4;;;;;;;5.22;82.90039;936.4911;;;;
2022/11/09 00:12:42;;;;;;;4.3;2.9;;;;;;;5.4;81.97461;936.5289;;;;
2022/11/09 00:15:22;;;;;;;9.3;6.8;;;;;;;5.51;80.77832;936.5914;;;;
2022/11/09 00:17:59;;;;;;;2.9;2.3;;;;;;;5.53;80.79297;936.5823;;;;
2022/11/09 00:20:46;;;;;;;2.9;2;;;;;;;5.47;80.64551;936.5263;;;;
2022/11/09 00:23:16;;;;;;;2.8;2;;;;;;;5.25;81.51758;936.4763;;;;
2022/11/09 00:25:47;;;;;;;2.4;1.7;;;;;;;5.07;82.46387;936.4095;;;;
2022/11/09 00:28:12;;;;;;;3;1.9;;;;;;;5.02;83.04199;936.3239;;;;
2022/11/09 00:30:37;;;;;;;8.7;7.9;;;;;;;4.94;83.68945;936.2983;;;;
2022/11/09 00:33:05;;;;;;;4.8;4.4;;;;;;;4.86;84.3623;936.2924;;;;
2022/11/09 00:35:30;;;;;;;2.7;2.5;;;;;;;4.83;84.32129;936.3569;;;;
2022/11/09 00:37:56;;;;;;;2.5;1.8;;;;;;;;;;;;;
2022/11/09 00:40:21;;;;;;;3.1;1.6;;;;;;;;;;;;;
2022/11/09 00:42:46;;;;;;;2.1;1.8;;;;;;;;;;;;;
2022/11/09 00:45:12;;;;;;;2.9;2.1;;;;;;;;;;;;;
2022/11/09 00:47:38;;;;;;;2.1;1.9;;;;;;;;;;;;;
2022/11/09 00:50:03;;;;;;;2.5;1.5;;;;;;;;;;;;;
2022/11/09 00:52:32;;;;;;;1.1;0.9;;;;;;;;;;;;;
2022/11/09 00:54:57;;;;;;;1.9;1.1;;;;;;;;;;;;;
2022/11/09 00:57:22;;;;;;;1.5;1.1;;;;;;;;;;;;;
2022/11/09 00:59:48;;;;;;;2.1;1.4;;;;;;;;;;;;;
2022/11/09 01:02:12;;;;;;;2;1.4;;;;;;;;;;;;;
2022/11/09 01:04:38;;;;;;;2.2;1.3;;;;;;;;;;;;;
2022/11/09 01:07:04;;;;;;;1.5;1.4;;;;;;;;;;;;;
2022/11/09 01:09:29;;;;;;;2;1.6;;;;;;;;;;;;;
2022/11/09 01:11:55;;;;;;;1.6;1.4;;;;;;;;;;;;;
2022/11/09 01:14:20;;;;;;;1.9;1.3;;;;;;;;;;;;;
2022/11/09 01:16:47;;;;;;;1.9;1.4;;;;;;;;;;;;;
2022/11/09 01:19:12;;;;;;;2.1;1.4;;;;;;;;;;;;;
2022/11/09 01:21:38;;;;;;;1.9;1.5;;;;;;;;;;;;;
2022/11/09 01:24:03;;;;;;;2.9;2.2;;;;;;;;;;;;;
2022/11/09 01:26:29;;;;;;;3.7;3.3;;;;;;;;;;;;;
2022/11/09 01:28:54;;;;;;;3.3;2.5;;;;;;;;;;;;;
2022/11/09 01:31:22;;;;;;;2.6;2;;;;;;;;;;;;;
2022/11/09 01:33:47;;;;;;;2;1.7;;;;;;;;;;;;;
2022/11/09 01:36:12;;;;;;;1.4;1.3;;;;;;;;;;;;;
2022/11/09 01:38:37;;;;;;;1.3;1.2;;;;;;;;;;;;;
2022/11/09 01:41:02;;;;;;;1.3;1.2;;;;;;;;;;;;;
2022/11/09 01:43:27;;;;;;;1.5;1.4;;;;;;;;;;;;;
2022/11/09 01:45:52;;;;;;;2.2;1.5;;;;;;;;;;;;;
2022/11/09 01:48:18;;;;;;;2.7;1.4;;;;;;;;;;;;;
2022/11/09 01:50:43;;;;;;;2.4;1.4;;;;;;;;;;;;;
2022/11/09 01:53:08;;;;;;;2.4;1.5;;;;;;;;;;;;;
2022/11/09 01:55:35;;;;;;;1.8;1.4;;;;;;;;;;;;;
2022/11/09 01:58:00;;;;;;;3.1;1.5;;;;;;;;;;;;;
2022/11/09 02:00:26;;;;;;;2;1.8;;;;;;;;;;;;;
2022/11/09 02:02:51;;;;;;;2;1.7;;;;;;;;;;;;;
2022/11/09 02:05:16;;;;;;;2.4;1.6;;;;;;;;;;;;;
2022/11/09 02:07:41;;;;;;;3;1.8;;;;;;;;;;;;;
2022/11/09 02:10:07;;;;;;;2.8;1.9;;;;;;;;;;;;;
2022/11/09 02:12:32;;;;;;;2.3;1.7;;;;;;;;;;;;;
2022/11/09 02:14:57;;;;;;;2.3;1.6;;;;;;;;;;;;;
2022/11/09 02:17:22;;;;;;;3.6;1.7;;;;;;;;;;;;;
2022/11/09 02:19:47;;;;;;;2.7;1.8;;;;;;;;;;;;;
2022/11/09 02:22:12;;;;;;;4;2;;;;;;;;;;;;;
2022/11/09 02:24:38;;;;;;;3.3;1.8;;;;;;;;;;;;;
2022/11/09 02:27:15;;;;;;;4.2;2.1;;;;;;;;;;;;;
2022/11/09 02:29:41;;;;;;;4.2;2.2;;;;;;;;;;;;;
2022/11/09 02:32:05;;;;;;;3.5;2;;;;;;;;;;;;;
2022/11/09 02:34:31;;;;;;;2.7;1.8;;;;;;;;;;;;;
2022/11/09 02:36:56;;;;;;;2.9;1.9;;;;;;;;;;;;;
2022/11/09 02:39:21;;;;;;;4.6;2.2;;;;;;;;;;;;;
2022/11/09 02:41:46;;;;;;;2.9;1.9;;;;;;;;;;;;;
2022/11/09 02:44:11;;;;;;;3.8;2.3;;;;;;;;;;;;;
2022/11/09 02:46:36;;;;;;;3.4;1.9;;;;;;;;;;;;;
2022/11/09 02:49:03;;;;;;;4.3;2.1;;;;;;;;;;;;;
2022/11/09 02:51:28;;;;;;;4.2;2.4;;;;;;;;;;;;;
2022/11/09 02:53:55;;;;;;;5.6;2.7;;;;;;;;;;;;;
2022/11/09 02:56:20;;;;;;;7;2.5;;;;;;;;;;;;;
2022/11/09 02:58:46;;;;;;;6.8;2.9;;;;;;;;;;;;;
2022/11/09 03:01:11;;;;;;;5.4;2.3;;;;;;;;;;;;;
2022/11/09 03:03:37;;;;;;;7.6;3.2;;;;;;;;;;;;;
2022/11/09 03:06:02;;;;;;;9.1;4.4;;;;;;;;;;;;;
2022/11/09 03:08:29;;;;;;;7.2;3.3;;;;;;;;;;;;;
2022/11/09 03:10:54;;;;;;;7.1;3.2;;;;;;;;;;;;;
2022/11/09 03:13:21;;;;;;;8.1;3.4;;;;;;;;;;;;;
2022/11/09 03:15:46;;;;;;;6.8;3.2;;;;;;;;;;;;;
2022/11/09 03:18:11;;;;;;;6.6;2.5;;;;;;;;;;;;;
2022/11/09 03:20:36;;;;;;;5.7;2.6;;;;;;;;;;;;;
2022/11/09 03:23:02;;;;;;;4.3;2.5;;;;;;;;;;;;;
2022/11/09 03:25:27;;;;;;;3.9;2.3;;;;;;;;;;;;;
2022/11/09 03:27:53;;;;;;;4.9;2.8;;;;;;;;;;;;;
2022/11/09 03:30:18;;;;;;;5.4;2.8;;;;;;;;;;;;;
2022/11/09 03:32:45;;;;;;;4.5;2.5;;;;;;;;;;;;;
2022/11/09 03:35:10;;;;;;;4.5;2.4;;;;;;;;;;;;;
2022/11/09 03:37:35;;;;;;;4.3;2.3;;;;;;;;;;;;;
2022/11/09 03:40:00;;;;;;;4.8;2.3;;;;;;;;;;;;;
2022/11/09 03:42:27;;;;;;;4.3;2.6;;;;;;;;;;;;;
2022/11/09 03:44:52;;;;;;;4.6;2.2;;;;;;;;;;;;;
2022/11/09 03:47:17;;;;;;;3.9;2.1;;;;;;;;;;;;;
2022/11/09 03:49:43;;;;;;;3.1;2;;;;;;;;;;;;;
2022/11/09 03:52:09;;;;;;;3.4;1.6;;;;;;;;;;;;;
2022/11/09 03:54:34;;;;;;;2.4;1.9;;;;;;;;;;;;;
2022/11/09 03:56:59;;;;;;;2.4;1.5;;;;;;;;;;;;;
2022/11/09 03:59:25;;;;;;;1.4;1.3;;;;;;;;;;;;;
2022/11/09 04:02:36;;;;;;;2.1;1.1;;;;;;;5.02;79.39941;936.2969;;;;
2022/11/09 04:05:07;;;;;;;1.6;1.2;;;;;;;5.3;77.21777;936.3172;;;;
2022/11/09 04:07:32;;;;;;;1.6;1.3;;;;;;;5.47;77.41797;936.3328;;;;
2022/11/09 04:10:03;;;;;;;1.2;1;;;;;;;5.52;76.97656;936.3611;;;;
2022/11/09 04:16:22;;;;;;;5;3;;;;;;;5;81.12012;936.4547;;;;
2022/11/09 04:18:47;;;;;;;5.9;3.3;;;;;;;4.87;81.92969;936.4252;;;;
2022/11/09 04:21:15;;;;;;;6.1;3.6;;;;;;;4.7;82.88867;936.4724;;;;
2022/11/09 04:23:40;;;;;;;5.6;3.6;;;;;;;4.59;83.7793;936.5066;;;;
2022/11/09 04:29:46;;;;;;;3.2;2.4;;;;;;;4.34;85.71094;936.5432;;;;
2022/11/09 04:32:12;;;;;;;4.5;2.6;;;;;;;4.31;85.98633;936.5817;;;;
2022/11/09 04:34:40;;;;;;;4.4;2.2;;;;;;;4.3;86.16504;936.5609;;;;
2022/11/09 04:37:03;;;;;;;3.6;2.1;;;;;;;4.2;86.52539;936.5386;;;;
2022/11/09 04:39:33;;;;;;;4.7;2.8;;;;;;;4.18;86.95996;936.5427;;;;
2022/11/09 04:41:59;;;;;;;5.9;2.9;;;;;;;4.23;86.86816;936.5492;;;;
2022/11/09 04:44:25;;;;;;;9.8;5.5;;;;;;;4.35;86.16211;936.5584;;;;
2022/11/09 04:46:56;;;;;;;9.4;5.4;;;;;;;4.38;85.65234;936.5421;;;;
2022/11/09 04:49:22;;;;;;;11.2;5.8;;;;;;;4.28;85.91309;936.5572;;;;
2022/11/09 04:51:47;;;;;;;7;4.4;;;;;;;4.31;85.80664;936.4359;;;;
2022/11/09 04:54:17;;;;;;;5.1;3.5;;;;;;;4.36;85.56934;936.543;;;;
2022/11/09 04:56:42;;;;;;;3.5;2.4;;;;;;;4.36;85.73633;936.5397;;;;
2022/11/09 04:59:13;;;;;;;3.2;2.3;;;;;;;4.45;85.39453;936.5586;;;;
2022/11/09 05:01:38;;;;;;;2.7;1.8;;;;;;;4.44;85.34766;936.5912;;;;
2022/11/09 05:04:05;;;;;;;3;2;;;;;;;4.3;86.14258;936.6004;;;;
2022/11/09 05:06:33;;;;;;;23.2;12.7;;;;;;;4.43;85.875;936.5414;;;;
2022/11/09 05:08:55;;;;;;;3.4;2.2;;;;;;;4.42;85.95215;936.4316;;;;
2022/11/09 05:11:24;;;;;;;3.3;2.5;;;;;;;4.41;86.2207;936.4597;;;;
2022/11/09 05:14:58;;;;;;;4;2.8;;;;;;;4.57;85.70117;936.4366;;;;
2022/11/09 05:17:32;;;;;;;5.6;2.8;;;;;;;4.49;85.76172;936.3506;;;;
2022/11/09 05:19:58;;;;;;;4.1;3.1;;;;;;;4.37;86.21094;936.3209;;;;
2022/11/09 05:24:50;;;;;;;3.5;2.9;;;;;;;4.33;86.50781;936.2647;;;;
2022/11/09 05:27:13;;;;;;;4.5;2.8;;;;;;;4.49;85.67383;936.2695;;;;
2022/11/09 05:29:42;;;;;;;6.1;2.6;;;;;;;4.52;85.61133;936.2467;;;;
2022/11/09 05:32:07;;;;;;;4;2.3;;;;;;;4.45;86.14844;936.2203;;;;
2022/11/09 05:34:33;;;;;;;3.4;2.2;;;;;;;4.6;85.62793;936.1947;;;;
2022/11/09 05:37:49;;;;;;;3.3;2.5;;;;;;;4.72;84.70508;936.2022;;;;
2022/11/09 05:41:10;;;;;;;5.3;3;;;;;;;4.84;84.03027;936.2428;;;;
2022/11/09 05:43:40;;;;;;;2.5;1.7;;;;;;;4.8;84.96973;936.284;;;;
2022/11/09 05:46:05;;;;;;;2.3;1.5;;;;;;;4.72;85.5957;936.2747;;;;
2022/11/09 05:48:34;;;;;;;1.8;1.6;;;;;;;4.71;85.44922;936.3858;;;;
2022/11/09 05:50:59;;;;;;;4.3;2.5;;;;;;;4.71;85.01855;936.4702;;;;
2022/11/09 05:53:25;;;;;;;5.1;1.9;;;;;;;4.95;83.87305;936.4888;;;;
2022/11/09 05:55:50;;;;;;;2.3;1.5;;;;;;;5.22;82.68359;936.4295;;;;
2022/11/09 05:58:17;;;;;;;3.1;1.7;;;;;;;5.5;81.48535;936.3447;;;;
2022/11/09 06:00:42;;;;;;;3.6;2.2;;;;;;;5.58;81.78516;936.4913;;;;
2022/11/09 06:03:09;;;;;;;2.2;1.6;;;;;;;5.68;80.1875;936.4063;;;;
2022/11/09 06:05:34;;;;;;;6.7;2.3;;;;;;;5.77;79.52734;936.4977;;;;
2022/11/09 06:08:03;;;;;;;3.1;1.8;;;;;;;5.76;79.20898;936.6286;;;;
2022/11/09 06:10:28;;;;;;;2.7;1.7;;;;;;;5.82;78.45313;936.6635;;;;
2022/11/09 06:12:55;;;;;;;2.1;1.3;;;;;;;5.99;77.66016;936.7406;;;;
2022/11/09 06:15:20;;;;;;;1.9;1.4;;;;;;;6.1;77.56641;936.7255;;;;
2022/11/09 06:17:45;;;;;;;4.6;3.3;;;;;;;6.13;78.05762;936.8153;;;;
2022/11/09 06:20:10;;;;;;;4.9;4.4;;;;;;;6.17;77.74902;936.8069;;;;
2022/11/09 06:22:38;;;;;;;5;4.1;;;;;;;6.35;77.2959;936.7844;;;;
2022/11/09 06:25:03;;;;;;;5.4;4.4;;;;;;;6.44;76.91504;936.7202;;;;
2022/11/09 06:27:28;;;;;;;6.6;4.3;;;;;;;6.45;76.95215;936.81;;;;
2022/11/09 06:29:55;;;;;;;7.6;4.2;;;;;;;6.56;76.64355;936.8858;;;;
2022/11/09 06:32:20;;;;;;;5.4;2.8;;;;;;;6.58;75.90137;936.8438;;;;
2022/11/09 06:34:49;;;;;;;2.9;2.6;;;;;;;6.69;74.69824;936.9286;;;;
2022/11/09 06:37:15;;;;;;;3.8;2;;;;;;;6.67;74.75;936.929;;;;
2022/11/09 06:43:20;;;;;;;2;1;;;;;;;7.33;68.02051;936.7762;;;;
2022/11/09 06:48:36;;;;;;;4.3;2.3;;;;;;;7.19;73.60645;936.9079;;;;
2022/11/09 06:57:06;;;;;;;5.9;2.8;;;;;;;7.68;73.19141;936.9267;;;;
2022/11/09 06:59:35;;;;;;;5.1;3.4;;;;;;;7.92;72.30078;936.8922;;;;
2022/11/09 07:05:53;;;;;;;7.4;2.9;;;;;;;8.28;71.22559;936.962;;;;
2022/11/09 07:14:22;;;;;;;4.9;2.3;;;;;;;9.04;68.58594;937.0356;;;;
2022/11/09 07:16:51;;;;;;;5.2;2.1;;;;;;;8.68;69.45117;936.9858;;;;
2022/11/09 07:19:16;;;;;;;3.7;2;;;;;;;8.53;70.32617;936.9619;;;;
2022/11/09 07:21:42;;;;;;;2.4;1.9;;;;;;;8.53;70.64355;936.9459;;;;
2022/11/09 07:24:07;;;;;;;4.5;3.3;;;;;;;8.54;70.62305;937.0295;;;;
2022/11/09 07:26:36;;;;;;;4.4;3.4;;;;;;;8.36;71.02344;937.0287;;;;
2022/11/09 07:29:05;;;;;;;6.3;3.6;;;;;;;8.37;71.14941;936.9725;;;;
2022/11/09 07:31:30;;;;;;;6.3;2.9;;;;;;;8.33;71.27051;936.9067;;;;
2022/11/09 07:34:03;;;;;;;5.1;2.8;;;;;;;8.23;71.32031;936.9257;;;;
2022/11/09 07:36:24;;;;;;;4.1;2.1;;;;;;;8.24;70.46973;936.8458;;;;
2022/11/09 07:38:49;;;;;;;4.9;2.3;;;;;;;8.31;70.74512;936.9191;;;;
2022/11/09 07:41:17;;;;;;;4.8;2.3;;;;;;;8.48;70.95313;936.8968;;;;
2022/11/09 07:43:42;;;;;;;6;2.7;;;;;;;8.57;70.34277;936.8989;;;;
2022/11/09 07:46:07;;;;;;;5.3;2.8;;;;;;;8.74;70.20996;936.8848;;;;
2022/11/09 07:48:32;;;;;;;4;2.4;;;;;;;9;69.42383;936.9673;;;;
2022/11/09 07:51:01;;;;;;;4.9;2.8;;;;;;;9.14;69.7627;936.9709;;;;
2022/11/09 07:53:32;;;;;;;4.6;2.4;;;;;;;9.22;68.66211;937.0136;;;;
2022/11/09 07:56:01;;;;;;;5.8;3.3;;;;;;;9.3;68.61621;936.9573;;;;
2022/11/09 07:58:26;;;;;;;6.1;3.1;;;;;;;9.37;68.97949;937.0272;;;;
2022/11/09 08:00:56;;;;;;;6.8;2.8;;;;;;;9.54;68.95215;937.1202;;;;
2022/11/09 08:03:22;;;;;;;6.8;3.1;;;;;;;9.73;68.60547;937.2243;;;;
2022/11/09 08:05:49;;;;;;;4.4;2.7;;;;;;;9.87;68.08203;937.304;;;;
2022/11/09 08:08:15;;;;;;;4.8;2.9;;;;;;;9.99;67.5752;937.2766;;;;
2022/11/09 08:10:49;;;;;;;3.5;2.5;;;;;;;10.16;67.46387;937.3564;;;;
2022/11/09 08:13:08;;;;;;;2.8;1.6;;;;;;;10.52;65.75098;937.3389;;;;
2022/11/09 08:15:38;;;;;;;5.2;2;;;;;;;10.71;63.3125;937.3231;;;;
2022/11/09 08:18:03;;;;;;;2.9;1.6;;;;;;;10.8;62.97266;937.2728;;;;
2022/11/09 08:20:31;;;;;;;4.9;1.8;;;;;;;11.02;63.25586;937.2803;;;;
2022/11/09 08:22:57;;;;;;;7.2;1.8;;;;;;;10.98;63.02246;937.1794;;;;
2022/11/09 08:25:22;;;;;;;6.6;2.3;;;;;;;10.83;62.83984;937.2701;;;;
2022/11/09 08:27:50;;;;;;;4.1;2.5;;;;;;;10.85;62.75;937.228;;;;
2022/11/09 08:30:15;;;;;;;12.7;5;;;;;;;11.03;63.24609;937.2294;;;;
2022/11/09 08:32:47;;;;;;;9.5;4.7;;;;;;;10.79;61.93066;937.2106;;;;
2022/11/09 08:35:16;;;;;;;7.2;3.6;;;;;;;10.87;63.02734;937.1429;;;;
2022/11/09 08:37:47;;;;;;;7;2.9;;;;;;;11.29;62.27734;937.1275;;;;
2022/11/09 08:40:17;;;;;;;7.3;3.2;;;;;;;11.54;61.00879;937.1909;;;;
2022/11/09 08:42:42;;;;;;;5.1;3;;;;;;;11.23;62.38184;937.2068;;;;
2022/11/09 08:45:11;;;;;;;5.4;3.1;;;;;;;10.98;63.89063;937.2321;;;;
2022/11/09 08:47:37;;;;;;;6.3;3.1;;;;;;;10.74;64.75684;937.2174;;;;
2022/11/09 08:50:03;;;;;;;4.8;3.3;;;;;;;10.46;64.88477;937.2827;;;;
2022/11/09 08:52:27;;;;;;;6.9;4.2;;;;;;;10.45;65.2959;937.2882;;;;
2022/11/09 08:54:56;;;;;;;8;3.9;;;;;;;10.67;64.20996;937.3794;;;;
2022/11/09 08:57:21;;;;;;;4.4;3.2;;;;;;;10.77;63.10352;937.3602;;;;
2022/11/09 08:59:48;;;;;;;4.4;3;;;;;;;10.87;63.25586;937.3644;;;;
2022/11/09 09:02:13;;;;;;;3.7;2.1;;;;;;;10.89;63.625;937.3095;;;;
2022/11/09 09:04:38;;;;;;;3.8;1.9;;;;;;;11.12;64.01367;937.3104;;;;
2022/11/09 09:07:03;;;;;;;2.1;1.6;;;;;;;11.39;63.37891;937.3423;;;;
2022/11/09 09:09:31;;;;;;;5.3;2.8;;;;;;;11.73;62.73047;937.353;;;;
2022/11/09 09:11:56;;;;;;;5.5;3.5;;;;;;;11.88;62.25879;937.3477;;;;
2022/11/09 09:14:22;;;;;;;4.2;2.7;;;;;;;11.98;61.6084;937.3544;;;;
2022/11/09 09:16:47;;;;;;;3.9;2.6;;;;;;;12;60.11133;937.4095;;;;
2022/11/09 09:19:13;;;;;;;3.9;2.1;;;;;;;12.17;59.33301;937.3575;;;;
2022/11/09 09:21:38;;;;;;;2.8;1.8;;;;;;;12.33;57.14258;937.3029;;;;
2022/11/09 09:24:03;;;;;;;2.3;1.5;;;;;;;12.4;56.07324;937.2303;;;;
2022/11/09 09:26:29;;;;;;;2.5;1;;;;;;;12.53;54.9541;937.1915;;;;
2022/11/09 09:28:54;;;;;;;1.8;1.2;;;;;;;12.68;53.58496;937.2788;;;;
2022/11/09 09:31:21;;;;;;;2.9;1.3;;;;;;;12.84;54.69434;937.3118;;;;
2022/11/09 09:33:47;;;;;;;2.3;1.4;;;;;;;13.04;53.64063;937.343;;;;
2022/11/09 09:36:13;;;;;;;1.3;1.1;;;;;;;13.12;51.07715;937.3748;;;;
2022/11/09 09:38:38;;;;;;;1.8;1;;;;;;;13.04;50.51758;937.4189;;;;
2022/11/09 09:41:07;;;;;;;1.2;1.1;;;;;;;13.09;50.91406;937.4453;;;;
2022/11/09 09:43:34;;;;;;;3;1.2;;;;;;;13.23;51.29785;937.4567;;;;
2022/11/09 09:45:59;;;;;;;1.1;1;;;;;;;13.4;50.96191;937.3875;;;;
2022/11/09 09:48:24;;;;;;;2.2;1.3;;;;;;;13.49;50.9834;937.3979;;;;
2022/11/09 09:50:49;;;;;;;1.4;1.3;;;;;;;13.6;50.73047;937.3496;;;;
2022/11/09 09:53:15;;;;;;;1.4;1.2;;;;;;;13.76;49.86426;937.3805;;;;
2022/11/09 09:55:40;;;;;;;1.7;1.1;;;;;;;13.95;49.11426;937.2894;;;;
2022/11/09 09:58:05;;;;;;;1.2;1.1;;;;;;;14.02;48.43262;937.2845;;;;
2022/11/09 10:00:32;;;;;;;1.3;1;;;;;;;14.22;48.17871;937.2532;;;;
2022/11/09 10:02:57;;;;;;;1.1;1;;;;;;;14.74;48.21191;937.1878;;;;
2022/11/09 10:05:26;;;;;;;2.4;1.2;;;;;;;14.99;47.49121;937.2115;;;;
2022/11/09 10:07:48;;;;;;;2;1.1;;;;;;;15.21;48.71484;937.2305;;;;
2022/11/09 10:10:16;;;;;;;2.1;1.3;;;;;;;15.16;47.80957;937.2006;;;;
2022/11/09 10:12:47;;;;;;;2;1;;;;;;;15.1;47.74512;937.2277;;;;
2022/11/09 10:15:12;;;;;;;2.3;1.1;;;;;;;15.25;48.01465;937.0701;;;;
2022/11/09 10:17:45;;;;;;;1.1;0.9;;;;;;;15.43;47.84961;937.0628;;;;
2022/11/09 10:20:10;;;;;;;2.3;1.6;;;;;;;15.6;47.54492;937.1069;;;;
2022/11/09 10:22:35;;;;;;;1.4;1.1;;;;;;;15.54;46.43066;937.1281;;;;
2022/11/09 10:25:00;;;;;;;2;1.1;;;;;;;15.55;45.24023;937.055;;;;
2022/11/09 10:27:31;;;;;;;3.4;1.2;;;;;;;15.61;45.21289;937.016;;;;
2022/11/09 10:29:56;;;;;;;0.8;0.8;;;;;;;15.43;45.55273;936.9761;;;;
2022/11/09 10:32:21;;;;;;;1;1;;;;;;;15.51;46.44922;936.9543;;;;
2022/11/09 10:34:50;;;;;;;1;0.9;;;;;;;15.64;47.44531;936.8844;;;;
2022/11/09 10:37:15;;;;;;;2;1.1;;;;;;;15.57;46.24805;936.8582;;;;
2022/11/09 10:39:40;;;;;;;1.7;1.2;;;;;;;15.6;45.92773;936.8773;;;;
2022/11/09 10:42:05;;;;;;;2.5;1.1;;;;;;;15.63;46.78516;936.8845;;;;
2022/11/09 10:44:35;;;;;;;2;0.9;;;;;;;15.45;46.92871;936.7897;;;;
2022/11/09 10:47:02;;;;;;;0.8;0.8;;;;;;;15.16;47.27832;936.7747;;;;
2022/11/09 10:49:27;;;;;;;1.4;0.8;;;;;;;15.07;47.00293;936.7308;;;;
2022/11/09 10:51:53;;;;;;;1.2;0.7;;;;;;;15.1;47.53711;936.6342;;;;
2022/11/09 10:54:24;;;;;;;1.7;0.9;;;;;;;15.23;47.10059;936.6322;;;;
2022/11/09 10:56:49;;;;;;;1;0.8;;;;;;;15.26;46.63086;936.5148;;;;
2022/11/09 10:59:14;;;;;;;1.4;0.8;;;;;;;15.3;47.39746;936.5047;;;;
2022/11/09 11:01:45;;;;;;;1;0.9;;;;;;;15.38;47.39355;936.4565;;;;
2022/11/09 11:04:14;;;;;;;1.3;0.9;;;;;;;15.53;47.74512;936.3739;;;;
2022/11/09 11:06:39;;;;;;;3.3;0.9;;;;;;;15.71;46.56348;936.332;;;;
2022/11/09 11:09:04;;;;;;;0.8;0.8;;;;;;;15.58;45.78613;936.3259;;;;
2022/11/09 11:11:29;;;;;;;3.6;0.9;;;;;;;15.8;45.59082;936.2127;;;;
2022/11/09 11:13:57;;;;;;;1.6;1.1;;;;;;;15.88;47.18262;936.1797;;;;
2022/11/09 11:16:55;;;;;;;1.1;1;;;;;;;15.84;46.7959;936.2463;;;;
2022/11/09 11:19:19;;;;;;;2.6;1.1;;;;;;;15.79;48.38574;936.1808;;;;
2022/11/09 11:21:44;;;;;;;1.1;0.8;;;;;;;15.85;47.28223;936.1883;;;;
2022/11/09 11:24:11;;;;;;;1.4;0.7;;;;;;;16.08;47.62109;936.1746;;;;
2022/11/09 11:26:36;;;;;;;2;0.9;;;;;;;16.27;46.57617;936.0869;;;;
2022/11/09 11:29:02;;;;;;;1.3;0.8;;;;;;;16.71;45.61719;936.0474;;;;
2022/11/09 11:31:26;;;;;;;1.2;0.8;;;;;;;17.41;43.60156;936.0519;;;;
2022/11/09 11:33:53;;;;;;;0.8;0.8;;;;;;;19.73;38.5957;935.9064;;;;
2022/11/09 11:36:18;;;;;;;1.5;0.8;;;;;;;23.08;32.89648;935.9034;;;;
2022/11/09 11:38:44;;;;;;;2.2;1;;;;;;;25.72;29.0498;935.9191;;;;
2022/11/09 11:41:09;;;;;;;0.7;0.7;;;;;;;25.19;27.54004;935.9014;;;;
2022/11/09 11:43:35;;;;;;;2.7;0.7;;;;;;;24.43;28.42383;935.8786;;;;
2022/11/09 11:46:00;;;;;;;1.5;0.9;;;;;;;25.04;28.60449;935.9059;;;;
2022/11/09 11:48:26;;;;;;;0.6;0.6;;;;;;;24.19;29.32715;935.8287;;;;
2022/11/09 11:50:52;;;;;;;2.1;0.8;;;;;;;25.28;29.26855;935.837;;;;
2022/11/09 11:53:17;;;;;;;0.9;0.7;;;;;;;25.67;28.19531;935.7838;;;;
2022/11/09 11:55:43;;;;;;;1;0.9;;;;;;;26.7;26.81543;935.796;;;;
2022/11/09 11:58:09;;;;;;;0.6;0.6;;;;;;;27.86;24.56836;935.7541;;;;
2022/11/09 12:00:37;;;;;;;0.5;0.5;;;;;;;29.58;23.125;935.748;;;;
2022/11/09 12:03:03;;;;;;;3.1;0.8;;;;;;;31.67;21.17285;935.6325;;;;
2022/11/09 12:05:28;;;;;;;2;0.8;;;;;;;32.27;21.46387;935.6485;;;;
2022/11/09 12:07:55;;;;;;;0.7;0.7;;;;;;;31.2;20.54102;935.608;;;;
2022/11/09 12:10:18;;;;;;;1;0.6;;;;;;;31.23;20.06348;935.5862;;;;
2022/11/09 12:12:45;;;;;;;2.6;0.7;;;;;;;31.39;19.75977;935.5535;;;;
2022/11/09 12:15:11;;;;;;;0.7;0.6;;;;;;;32.01;19.12695;935.5198;;;;
2022/11/09 12:17:42;;;;;;;0.7;0.7;;;;;;;31.89;18.64258;935.5198;;;;
2022/11/09 12:23:51;;;;;;;0.6;0.5;;;;;;;32.87;18.23828;935.4509;;;;
2022/11/09 12:26:16;;;;;;;0.9;0.6;;;;;;;33.61;17.46289;935.3706;;;;
2022/11/09 12:28:43;;;;;;;0.7;0.7;;;;;;;34.05;17.28711;935.3578;;;;
2022/11/09 12:31:09;;;;;;;0.5;0.5;;;;;;;33.97;17.56055;935.3778;;;;
2022/11/09 12:33:34;;;;;;;0.6;0.6;;;;;;;33;18.07617;935.3538;;;;
2022/11/09 12:35:59;;;;;;;1;0.5;;;;;;;31.39;18.89746;935.2648;;;;
2022/11/09 12:38:26;;;;;;;0.6;0.6;;;;;;;31.38;19.81836;935.241;;;;
2022/11/09 12:40:53;;;;;;;0.5;0.5;;;;;;;31.29;20.00586;935.2327;;;;
2022/11/09 12:43:18;;;;;;;0.5;0.5;;;;;;;31.47;19.00879;935.1781;;;;
2022/11/09 12:45:43;;;;;;;0.7;0.6;;;;;;;31.85;18.86914;935.1404;;;;
2022/11/09 12:48:09;;;;;;;1.1;0.4;;;;;;;30.58;20.64355;935.1894;;;;
2022/11/09 12:50:34;;;;;;;1;0.6;;;;;;;30.81;19.94922;935.1122;;;;
2022/11/09 12:52:59;;;;;;;0.8;0.7;;;;;;;30.32;21.15723;935.1289;;;;
2022/11/09 12:55:27;;;;;;;0.6;0.6;;;;;;;30;20.52148;935.2015;;;;
2022/11/09 12:57:52;;;;;;;0.6;0.6;;;;;;;31.65;19.20703;935.1156;;;;
2022/11/09 13:00:19;;;;;;;0.6;0.6;;;;;;;32.78;18.21094;935.0875;;;;
2022/11/09 13:02:45;;;;;;;0.5;0.5;;;;;;;33.58;16.93262;935.1546;;;;
2022/11/09 13:05:11;;;;;;;0.5;0.5;;;;;;;34.9;16.29395;935.1347;;;;
2022/11/09 13:07:38;;;;;;;0.9;0.8;;;;;;;35.08;16.74707;935.1733;;;;
2022/11/09 13:10:03;;;;;;;1.9;0.7;;;;;;;33.99;18.77734;935.2068;;;;
2022/11/09 13:12:28;;;;;;;0.9;0.6;;;;;;;35.26;17.58594;935.1119;;;;
2022/11/09 13:14:54;;;;;;;0.6;0.6;;;;;;;35.74;16.31152;935.1047;;;;
2022/11/09 13:17:19;;;;;;;0.7;0.7;;;;;;;36.46;15.10254;935.1069;;;;
2022/11/09 13:19:44;;;;;;;1.8;0.6;;;;;;;36.44;15.91309;935.1025;;;;
2022/11/09 13:22:09;;;;;;;1.2;0.6;;;;;;;36.55;15.61426;935.0836;;;;
2022/11/09 13:24:34;;;;;;;2.3;0.6;;;;;;;35.49;16.10938;935.0859;;;;
2022/11/09 13:26:59;;;;;;;0.6;0.6;;;;;;;35.02;17.02148;935.1096;;;;
2022/11/09 13:29:25;;;;;;;1;0.7;;;;;;;33.5;17.57813;935.1192;;;;
2022/11/09 13:31:50;;;;;;;0.6;0.6;;;;;;;34.11;17.48242;935.1234;;;;
2022/11/09 13:34:15;;;;;;;0.7;0.6;;;;;;;35.13;16.88086;935.1371;;;;
2022/11/09 13:36:43;;;;;;;1.3;0.8;;;;;;;36.5;15.58887;935.1572;;;;
2022/11/09 13:39:08;;;;;;;1.1;0.5;;;;;;;35.55;16.53418;935.1061;;;;
2022/11/09 13:41:36;;;;;;;0.7;0.6;;;;;;;33.87;17.45996;935.1107;;;;
2022/11/09 13:44:01;;;;;;;1.1;0.7;;;;;;;31.76;19.65527;934.9992;;;;
2022/11/09 13:46:26;;;;;;;0.8;0.7;;;;;;;30.16;21.18555;935.0047;;;;
2022/11/09 13:48:52;;;;;;;0.9;0.7;;;;;;;28.72;22.96191;935.0683;;;;
2022/11/09 13:51:17;;;;;;;0.7;0.7;;;;;;;27.71;24.35938;934.9525;;;;
2022/11/09 13:53:42;;;;;;;1.5;0.7;;;;;;;26.65;25.78223;934.9614;;;;
2022/11/09 13:56:08;;;;;;;0.7;0.7;;;;;;;25.39;27.28027;935.0145;;;;
2022/11/09 13:59:28;;;;;;;1.1;0.7;;;;;;;24.51;28.70117;935.0261;;;;
2022/11/09 14:01:55;;;;;;;1.8;0.8;;;;;;;24;29.55078;935.0441;;;;
2022/11/09 14:04:19;;;;;;;2.1;1.3;;;;;;;24.01;29.93945;935.0242;;;;
2022/11/09 14:06:44;;;;;;;1.6;0.6;;;;;;;24.29;29.43945;935.0491;;;;
2022/11/09 14:09:09;;;;;;;1.9;0.7;;;;;;;23.79;30.18359;935.0295;;;;
2022/11/09 14:11:35;;;;;;;0.7;0.6;;;;;;;22.88;31.29688;935.0005;;;;
2022/11/09 14:14:00;;;;;;;1.2;0.9;;;;;;;21.92;33.2207;935.0058;;;;
2022/11/09 14:16:26;;;;;;;1.3;1.1;;;;;;;21.4;34.38672;935.0234;;;;
2022/11/09 14:18:50;;;;;;;2;0.9;;;;;;;20.91;35.56543;935.0889;;;;
2022/11/09 14:21:15;;;;;;;1.5;1.3;;;;;;;20.43;36.34473;934.9714;;;;
2022/11/09 14:23:42;;;;;;;1.7;1;;;;;;;20.08;37.07422;935.1785;;;;
2022/11/09 14:26:07;;;;;;;3;2.1;;;;;;;19.67;38.28613;935.144;;;;
2022/11/09 14:28:33;;;;;;;1.1;0.9;;;;;;;19.37;39.10059;935.135;;;;
2022/11/09 14:30:57;;;;;;;1.6;0.8;;;;;;;18.91;40.31543;935.1785;;;;
2022/11/09 14:33:22;;;;;;;1.4;0.9;;;;;;;18.8;40.98145;935.218;;;;
2022/11/09 14:35:51;;;;;;;2.6;0.9;;;;;;;18.67;41.24805;935.1716;;;;
2022/11/09 14:38:18;;;;;;;1.3;1.2;;;;;;;18.51;41.4082;935.2332;;;;
2022/11/09 14:40:46;;;;;;;4.8;2.8;;;;;;;18.31;42.27246;935.2623;;;;
2022/11/09 14:43:13;;;;;;;3.8;3.1;;;;;;;18.16;42.78125;935.2576;;;;
2022/11/09 14:45:37;;;;;;;3.1;1.7;;;;;;;18.08;43.2373;935.2733;;;;
2022/11/09 14:48:03;;;;;;;3.2;1.6;;;;;;;17.69;45.52051;935.3052;;;;
2022/11/09 14:50:29;;;;;;;1.9;1.6;;;;;;;17.49;45.95215;935.2938;;;;
2022/11/09 14:52:54;;;;;;;2.5;1.5;;;;;;;17.48;45.63867;935.3189;;;;
2022/11/09 14:55:25;;;;;;;2.4;1.5;;;;;;;17.43;45.65625;935.3289;;;;
2022/11/09 14:57:54;;;;;;;2;1.3;;;;;;;17.42;45.31934;935.3428;;;;
2022/11/09 15:00:24;;;;;;;3.6;1.1;;;;;;;17.52;45.8623;935.3293;;;;
2022/11/09 15:02:49;;;;;;;1.3;1.2;;;;;;;17.54;45.81836;935.3304;;;;
2022/11/09 15:05:14;;;;;;;1.5;1;;;;;;;17.5;46.47461;935.3959;;;;
2022/11/09 15:07:43;;;;;;;1.2;1.1;;;;;;;17.45;46.50488;935.384;;;;
2022/11/09 15:10:09;;;;;;;1.9;0.9;;;;;;;17.33;46.2373;935.4355;;;;
2022/11/09 15:12:33;;;;;;;1.4;1.1;;;;;;;17.26;46.3457;935.4852;;;;
2022/11/09 15:15:02;;;;;;;1.7;1;;;;;;;17.13;47.31738;935.5317;;;;
2022/11/09 15:17:26;;;;;;;1.6;1.2;;;;;;;17.12;47.60645;935.5536;;;;
2022/11/09 15:19:53;;;;;;;2;1.1;;;;;;;16.97;48.78418;935.6503;;;;
2022/11/09 15:22:22;;;;;;;2;1.6;;;;;;;16.78;49.73438;935.6948;;;;
2022/11/09 15:27:58;;;;;;;2.1;1.3;;;;;;;16.53;50.73535;935.7333;;;;
2022/11/09 15:30:26;;;;;;;2.9;1.4;;;;;;;16.48;51.22949;935.7502;;;;
2022/11/09 15:32:51;;;;;;;1.7;1.5;;;;;;;16.33;52.0791;935.7806;;;;
2022/11/09 15:35:17;;;;;;;3.1;1.7;;;;;;;16.3;52.26074;935.8558;;;;
2022/11/09 15:37:44;;;;;;;2;1.5;;;;;;;16.16;53.29688;935.824;;;;
2022/11/09 15:40:10;;;;;;;4.2;2.3;;;;;;;16.1;53.49805;935.8289;;;;
2022/11/09 15:42:37;;;;;;;7.8;5.5;;;;;;;16.1;53.59082;935.7985;;;;
2022/11/09 15:45:02;;;;;;;8.9;6.1;;;;;;;16.04;53.50195;935.8195;;;;
2022/11/09 15:47:30;;;;;;;4.9;3.3;;;;;;;16.03;53.86914;935.8639;;;;
2022/11/09 15:49:53;;;;;;;4.3;1.9;;;;;;;15.93;54.56348;935.8578;;;;
2022/11/09 15:52:18;;;;;;;3;1.7;;;;;;;15.83;55.36035;935.9059;;;;
2022/11/09 15:54:43;;;;;;;3.3;1.6;;;;;;;15.74;56.23828;935.9381;;;;
2022/11/09 15:57:08;;;;;;;5.8;2;;;;;;;15.55;56.57129;935.9636;;;;
2022/11/09 15:59:35;;;;;;;3.2;2;;;;;;;15.46;56.7334;935.9133;;;;
2022/11/09 16:02:00;;;;;;;4.9;2.3;;;;;;;15.43;57.0293;935.8728;;;;
2022/11/09 16:04:25;;;;;;;4.7;2.1;;;;;;;15.32;57.59277;935.9581;;;;
2022/11/09 16:06:50;;;;;;;8.2;2.7;;;;;;;15.1;58.27832;935.9863;;;;
2022/11/09 16:09:16;;;;;;;4.4;2.4;;;;;;;15.06;58.76953;935.9601;;;;
2022/11/09 16:11:41;;;;;;;5.4;2.8;;;;;;;15;58.8877;936.0336;;;;
2022/11/09 16:14:06;;;;;;;3.7;2.8;;;;;;;14.93;59.06348;936.1201;;;;